Time;durP1;ratioP1;P1;durP2;ratioP2;P2;SDS_P1;SDS_P2;PMS_P1;PMS_P2;Temp;Humidity;BMP_temperature;BMP_pressure;BME280_temperature;BME280_humidity;BME280_pressure;Samples;Min_cycle;Max_cycle;Signal;HPM_P1;HPM_P2
2022/05/16 00:03:38;;;;;;;4.03;2.78;;;;;17.70;100742.00;;;;9995115;29;20194;-80
2022/05/16 00:08:40;;;;;;;5.65;3.17;;;;;17.50;100746.00;;;;10004779;29;20222;-80
2022/05/16 00:13:42;;;;;;;6.03;2.83;;;;;17.40;100738.00;;;;9984683;29;20219;-80
2022/05/16 00:18:44;;;;;;;6.07;2.77;;;;;17.30;100746.00;;;;9994909;29;20240;-79
2022/05/16 00:23:46;;;;;;;7.28;2.85;;;;;17.20;100732.00;;;;10019721;29;20261;-80
2022/05/16 00:28:48;;;;;;;7.67;2.93;;;;;17.10;100718.00;;;;10010857;29;20209;-79
2022/05/16 00:33:51;;;;;;;5.97;2.80;;;;;17.10;100724.00;;;;9961504;29;20198;-79
2022/05/16 00:38:56;;;;;;;7.37;3.27;;;;;17.10;100713.00;;;;9974657;29;20206;-79
2022/05/16 00:43:59;;;;;;;4.50;2.60;;;;;17.10;100724.00;;;;10019834;29;20201;-80
2022/05/16 00:49:05;;;;;;;6.77;2.93;;;;;17.20;100718.00;;;;9988868;29;20213;-80
2022/05/16 00:54:42;;;;;;;5.45;2.70;;;;;17.30;100716.00;;;;9952040;29;20199;-79
2022/05/16 00:59:47;;;;;;;5.33;3.00;;;;;17.30;100729.00;;;;9985538;29;20201;-79
2022/05/16 01:04:50;;;;;;;5.30;3.27;;;;;17.40;100723.00;;;;10021787;29;20205;-79
2022/05/16 01:09:53;;;;;;;5.27;3.13;;;;;17.50;100721.00;;;;10026081;29;20215;-78
2022/05/16 01:14:57;;;;;;;4.88;2.67;;;;;17.60;100723.00;;;;10030077;29;20198;-78
2022/05/16 01:19:59;;;;;;;6.17;3.37;;;;;17.60;100717.00;;;;9975423;29;20225;-78
2022/05/16 01:25:12;;;;;;;5.78;2.75;;;;;17.70;100711.00;;;;9983700;29;20258;-78
2022/05/16 01:30:20;;;;;;;8.15;2.80;;;;;17.60;100703.00;;;;9977133;29;20217;-78
2022/05/16 01:35:25;;;;;;;5.13;2.50;;;;;17.50;100712.00;;;;9956728;29;20206;-79
2022/05/16 01:40:27;;;;;;;2.97;2.47;;;;;17.40;100719.00;;;;10030113;29;20213;-79
2022/05/16 01:45:30;;;;;;;7.35;3.10;;;;;17.30;100706.00;;;;10007120;29;20253;-79
2022/05/16 01:50:32;;;;;;;7.20;2.60;;;;;17.40;100704.00;;;;10013535;29;20293;-78
2022/05/16 01:55:34;;;;;;;4.25;2.30;;;;;17.50;100714.00;;;;10014327;29;20571;-78
2022/05/16 02:00:37;;;;;;;5.20;2.67;;;;;17.60;100724.00;;;;9995440;29;20619;-79
2022/05/16 02:05:41;;;;;;;4.17;2.47;;;;;17.50;100716.00;;;;9993797;29;20225;-78
2022/05/16 02:10:44;;;;;;;4.63;2.37;;;;;17.50;100721.00;;;;10008700;29;20262;-79
2022/05/16 02:15:47;;;;;;;6.23;2.40;;;;;17.50;100725.00;;;;9993067;29;20189;-78
2022/05/16 02:20:48;;;;;;;3.70;2.47;;;;;17.40;100723.00;;;;9994710;29;20217;-79
2022/05/16 02:25:51;;;;;;;3.07;2.70;;;;;17.30;100717.00;;;;10023022;29;20197;-79
2022/05/16 02:30:54;;;;;;;5.57;2.72;;;;;17.30;100715.00;;;;9998803;29;20677;-78
2022/05/16 02:35:57;;;;;;;6.03;2.50;;;;;17.30;100715.00;;;;9992119;29;20202;-78
2022/05/16 02:40:58;;;;;;;8.98;2.95;;;;;17.30;100709.00;;;;10009285;29;20660;-78
2022/05/16 02:46:01;;;;;;;5.77;2.30;;;;;17.20;100690.00;;;;9978842;29;20197;-79
2022/05/16 02:51:03;;;;;;;5.23;2.30;;;;;17.20;100685.00;;;;10007438;29;20296;-78
2022/05/16 02:56:05;;;;;;;4.45;2.60;;;;;17.20;100693.00;;;;9982899;29;20197;-78
2022/05/16 03:01:07;;;;;;;5.37;2.40;;;;;17.10;100704.00;;;;10016981;29;20193;-78
2022/05/16 03:06:10;;;;;;;4.40;2.20;;;;;17.10;100702.00;;;;9990316;29;20882;-78
2022/05/16 03:11:12;;;;;;;4.33;2.67;;;;;17.30;100700.00;;;;10020140;29;20681;-79
2022/05/16 03:16:14;;;;;;;5.63;2.60;;;;;17.30;100703.00;;;;9991625;29;20205;-79
2022/05/16 03:21:16;;;;;;;5.73;2.60;;;;;17.30;100691.00;;;;10014653;29;20214;-78
2022/05/16 03:26:18;;;;;;;4.07;2.70;;;;;17.30;100680.00;;;;9975239;29;20912;-78
2022/05/16 03:31:20;;;;;;;4.17;3.23;;;;;17.30;100678.00;;;;10001555;29;20209;-78
2022/05/16 03:36:22;;;;;;;4.53;2.75;;;;;17.30;100679.00;;;;10003105;29;20209;-79
2022/05/16 03:41:24;;;;;;;7.22;2.55;;;;;17.40;100668.00;;;;10011333;29;20688;-78
2022/05/16 03:46:26;;;;;;;5.30;2.40;;;;;17.40;100678.00;;;;9994365;29;20234;-78
2022/05/16 03:51:28;;;;;;;6.33;2.40;;;;;17.50;100684.00;;;;9999887;29;20213;-78
2022/05/16 03:56:30;;;;;;;4.37;2.40;;;;;17.60;100691.00;;;;10004036;29;20254;-79
2022/05/16 04:01:33;;;;;;;4.40;2.30;;;;;17.70;100700.00;;;;10019390;29;20198;-79
2022/05/16 04:06:36;;;;;;;6.43;2.20;;;;;17.80;100706.00;;;;10005126;29;20888;-79
2022/05/16 04:11:38;;;;;;;3.65;1.90;;;;;17.90;100692.00;;;;10004151;29;20270;-79
2022/05/16 04:16:40;;;;;;;10.63;2.60;;;;;18.00;100701.00;;;;9991704;29;20281;-79
2022/05/16 04:21:42;;;;;;;3.43;2.23;;;;;18.10;100709.00;;;;9976638;29;20214;-78
2022/05/16 04:26:44;;;;;;;5.20;3.05;;;;;18.30;100726.00;;;;9987563;29;20269;-79
2022/05/16 04:31:47;;;;;;;8.35;4.13;;;;;18.50;100736.00;;;;10024080;29;20269;-79
2022/05/16 04:36:48;;;;;;;10.73;3.80;;;;;18.60;100734.00;;;;9991675;29;20204;-79
2022/05/16 04:47:11;;;;;;;6.75;2.95;;;;;18.60;100752.00;;;;9988256;29;20281;-78
2022/05/16 04:52:13;;;;;;;9.27;3.58;;;;;18.60;100770.00;;;;10010481;29;20261;-78
2022/05/16 04:57:15;;;;;;;6.05;2.83;;;;;18.70;100767.00;;;;9994891;29;20259;-79
2022/05/16 05:02:18;;;;;;;6.95;3.00;;;;;18.80;100791.00;;;;9987289;29;20197;-78
2022/05/16 05:07:21;;;;;;;7.32;2.80;;;;;18.90;100787.00;;;;10007516;29;20201;-78
2022/05/16 05:17:44;;;;;;;3.78;2.70;;;;;19.40;100795.00;;;;9965640;29;20594;-79
2022/05/16 05:22:47;;;;;;;6.85;2.95;;;;;19.60;100795.00;;;;10002194;29;20198;-78
2022/05/16 05:27:49;;;;;;;5.30;2.83;;;;;19.80;100793.00;;;;9994538;29;20265;-79
2022/05/16 05:32:52;;;;;;;7.18;2.70;;;;;20.00;100800.00;;;;10007446;29;20220;-78
2022/05/16 05:37:55;;;;;;;6.00;2.47;;;;;20.30;100798.00;;;;10016875;29;20209;-79
2022/05/16 05:43:05;;;;;;;4.40;2.70;;;;;20.70;100807.00;;;;10015924;29;20647;-78
2022/05/16 05:48:07;;;;;;;4.90;2.30;;;;;20.90;100814.00;;;;10002700;29;20201;-79
2022/05/16 05:53:09;;;;;;;6.78;2.45;;;;;21.00;100826.00;;;;9989223;29;20215;-79
2022/05/16 05:58:11;;;;;;;8.23;2.78;;;;;21.00;100826.00;;;;9972134;29;20251;-78
2022/05/16 06:03:13;;;;;;;5.55;2.15;;;;;21.10;100838.00;;;;9980433;29;20219;-78
2022/05/16 06:08:14;;;;;;;9.00;2.13;;;;;22.40;100832.00;;;;10002787;29;20201;-79
2022/05/16 06:13:18;;;;;;;6.10;2.20;;;;;23.40;100833.00;;;;9969593;29;20227;-78
2022/05/16 06:18:20;;;;;;;7.50;2.10;;;;;24.20;100832.00;;;;9996619;29;20338;-79
2022/05/16 06:23:22;;;;;;;6.07;2.20;;;;;24.80;100835.00;;;;9970782;29;20198;-78
2022/05/16 06:28:27;;;;;;;3.65;2.13;;;;;25.40;100838.00;;;;9968277;29;20234;-79
2022/05/16 06:33:29;;;;;;;6.57;2.50;;;;;25.90;100853.00;;;;9986894;29;20668;-79
2022/05/16 06:38:35;;;;;;;5.50;2.50;;;;;26.40;100856.00;;;;9960503;29;20240;-79
2022/05/16 06:43:37;;;;;;;5.35;2.92;;;;;26.80;100856.00;;;;9991876;29;20229;-78
2022/05/16 06:48:39;;;;;;;4.75;2.40;;;;;27.10;100861.00;;;;9987300;29;20193;-79
2022/05/16 06:53:43;;;;;;;5.25;2.47;;;;;27.60;100876.00;;;;9975428;29;20217;-78
2022/05/16 06:58:45;;;;;;;5.03;2.00;;;;;27.80;100881.00;;;;9980119;29;20205;-80
2022/05/16 07:03:47;;;;;;;3.72;1.67;;;;;28.00;100878.00;;;;9980245;29;20330;-79
2022/05/16 07:08:51;;;;;;;3.75;1.80;;;;;28.20;100876.00;;;;9984333;29;20233;-78
2022/05/16 07:13:53;;;;;;;4.75;1.88;;;;;28.50;100875.00;;;;9988741;29;20233;-79
2022/05/16 07:18:55;;;;;;;3.88;1.80;;;;;28.40;100880.00;;;;10007724;29;20221;-79
2022/05/16 07:23:57;;;;;;;4.43;1.85;;;;;28.70;100872.00;;;;9985702;29;20668;-78
2022/05/16 07:28:59;;;;;;;4.40;2.20;;;;;29.50;100880.00;;;;10012690;29;20209;-79
2022/05/16 07:34:02;;;;;;;3.80;2.00;;;;;29.40;100889.00;;;;10007598;29;20218;-77
2022/05/16 07:39:03;;;;;;;7.95;2.63;;;;;29.60;100885.00;;;;9974135;29;20365;-78
2022/05/16 07:44:05;;;;;;;4.78;2.40;;;;;29.90;100905.00;;;;10009866;29;20293;-77
2022/05/16 07:49:07;;;;;;;5.13;2.28;;;;;28.70;100900.00;;;;9966748;29;20578;-77
2022/05/16 07:54:09;;;;;;;5.95;2.45;;;;;28.90;100911.00;;;;10003042;29;20206;-77
2022/05/16 07:59:12;;;;;;;9.63;2.25;;;;;28.50;100906.00;;;;10005706;29;20972;-77
2022/05/16 08:04:14;;;;;;;7.40;2.75;;;;;28.50;100916.00;;;;9961443;29;20214;-76
2022/05/16 08:14:43;;;;;;;10.77;2.92;;;;;30.20;100938.00;;;;10017623;29;20217;-79
2022/05/16 08:19:45;;;;;;;6.57;2.67;;;;;30.50;100950.00;;;;9987914;29;20296;-79
2022/05/16 08:24:47;;;;;;;3.97;3.05;;;;;29.70;100964.00;;;;9965961;29;20255;-78
2022/05/16 08:29:49;;;;;;;6.55;2.97;;;;;28.30;100974.00;;;;10002836;29;20209;-78
2022/05/16 08:34:58;;;;;;;4.75;2.88;;;;;28.00;100969.00;;;;10011484;29;20676;-78
2022/05/16 08:40:03;;;;;;;6.07;2.83;;;;;28.20;100971.00;;;;10018421;29;20201;-78
2022/05/16 08:45:30;;;;;;;7.53;3.38;;;;;28.70;100971.00;;;;10006053;29;20201;-75
2022/05/16 08:50:40;;;;;;;6.90;2.85;;;;;30.30;100970.00;;;;10016646;29;20285;-78
2022/05/16 08:55:52;;;;;;;4.60;2.95;;;;;29.30;100992.00;;;;9972340;29;20225;-76
2022/05/16 09:01:12;;;;;;;9.15;3.65;;;;;28.20;101003.00;;;;10002297;29;20261;-76
2022/05/16 09:07:14;;;;;;;10.55;3.65;;;;;27.90;101016.00;;;;10010465;29;20198;-76
2022/05/16 09:12:25;;;;;;;5.18;3.40;;;;;27.30;101016.00;;;;9939314;29;20359;-77
2022/05/16 09:17:39;;;;;;;8.57;4.47;;;;;28.00;101017.00;;;;9990818;29;20237;-77
2022/05/16 09:23:08;;;;;;;6.07;3.70;;;;;28.20;101016.00;;;;10002761;29;20194;-77
2022/05/16 09:33:32;;;;;;;9.80;4.80;;;;;26.40;101035.00;;;;10006412;29;20220;-76
2022/05/16 09:38:34;;;;;;;6.82;4.15;;;;;26.50;101031.00;;;;10010063;29;20224;-76
2022/05/16 09:43:42;;;;;;;7.30;4.30;;;;;26.80;101035.00;;;;10008680;29;20202;-78
2022/05/16 09:48:44;;;;;;;9.27;4.47;;;;;26.90;101037.00;;;;10031908;29;20193;-78
2022/05/16 09:53:46;;;;;;;7.75;4.40;;;;;26.70;101057.00;;;;10004297;29;20237;-78
2022/05/16 09:59:09;;;;;;;7.20;5.13;;;;;25.90;101064.00;;;;10010812;29;20219;-78
2022/05/16 10:04:16;;;;;;;9.38;5.10;;;;;25.20;101084.00;;;;9986038;29;20561;-78
2022/05/16 10:09:28;;;;;;;9.52;5.28;;;;;24.60;101101.00;;;;9999954;29;20236;-77
2022/05/16 10:14:30;;;;;;;9.48;6.47;;;;;24.50;101118.00;;;;9998737;29;20281;-77
2022/05/16 10:19:32;;;;;;;8.63;5.68;;;;;24.80;101124.00;;;;9995505;29;20241;-77
2022/05/16 10:24:45;;;;;;;7.72;5.18;;;;;24.80;101133.00;;;;9985544;29;20653;-78
2022/05/16 10:29:51;;;;;;;12.45;5.72;;;;;23.90;101120.00;;;;9969396;29;20649;-78
2022/05/16 10:35:02;;;;;;;10.70;6.57;;;;;23.50;101140.00;;;;10021365;29;20273;-77
2022/05/16 10:40:30;;;;;;;9.05;6.75;;;;;23.40;101148.00;;;;9980338;29;20659;-77
2022/05/16 10:45:33;;;;;;;10.68;6.70;;;;;23.90;101153.00;;;;9990255;29;20283;-78
2022/05/16 10:50:46;;;;;;;8.40;5.90;;;;;25.00;101153.00;;;;10007586;29;20197;-77
2022/05/16 10:56:13;;;;;;;7.22;5.85;;;;;25.90;101159.00;;;;9987451;29;20202;-78
2022/05/16 11:01:36;;;;;;;8.77;5.65;;;;;26.70;101159.00;;;;9996853;29;20236;-78
2022/05/16 11:07:08;;;;;;;8.80;4.82;;;;;28.10;101148.00;;;;10005957;29;20201;-78
2022/05/16 11:12:17;;;;;;;7.82;4.63;;;;;29.20;101155.00;;;;9997337;29;20846;-78
2022/05/16 11:17:27;;;;;;;8.43;4.15;;;;;27.80;101174.00;;;;9998798;29;20233;-78
2022/05/16 11:22:36;;;;;;;8.25;4.53;;;;;27.30;101175.00;;;;9987912;29;20213;-78
2022/05/16 11:28:18;;;;;;;5.63;3.80;;;;;27.30;101173.00;;;;9991536;29;20254;-78
2022/05/16 11:33:23;;;;;;;7.28;3.47;;;;;27.70;101171.00;;;;9973028;29;20635;-77
2022/05/16 11:38:25;;;;;;;7.95;3.63;;;;;28.40;101186.00;;;;9969758;29;20205;-77
2022/05/16 11:43:31;;;;;;;4.75;2.97;;;;;28.00;101187.00;;;;10010907;29;20223;-78
2022/05/16 11:49:05;;;;;;;5.68;3.30;;;;;27.90;101185.00;;;;9981625;29;20244;-77
2022/05/16 11:54:33;;;;;;;6.68;3.80;;;;;27.80;101198.00;;;;9987616;29;20212;-78
2022/05/16 12:05:01;;;;;;;8.80;3.20;;;;;27.60;101206.00;;;;10004791;29;20197;-78
2022/05/16 12:10:12;;;;;;;6.88;2.90;;;;;27.80;101200.00;;;;9995497;29;20210;-77
2022/05/16 12:15:23;;;;;;;8.05;3.22;;;;;27.20;101219.00;;;;10004262;29;20245;-78
2022/05/16 12:20:37;;;;;;;6.72;3.13;;;;;27.00;101216.00;;;;10002802;29;20225;-77
2022/05/16 12:25:41;;;;;;;7.80;3.10;;;;;27.80;101220.00;;;;10036467;29;20376;-78
2022/05/16 12:30:44;;;;;;;7.50;3.17;;;;;27.80;101222.00;;;;9986712;29;20216;-77
2022/05/16 12:35:46;;;;;;;7.50;3.20;;;;;27.40;101217.00;;;;10023459;29;20209;-77
2022/05/16 12:41:44;;;;;;;12.05;2.88;;;;;26.70;101234.00;;;;9987500;29;20764;-78
2022/05/16 12:47:22;;;;;;;7.93;3.15;;;;;26.20;101244.00;;;;9973512;29;20678;-77
2022/05/16 12:52:53;;;;;;;6.10;2.67;;;;;26.30;101237.00;;;;10002539;29;20246;-77
2022/05/16 12:58:10;;;;;;;9.27;3.00;;;;;27.00;101238.00;;;;10018655;29;20284;-78
2022/05/16 13:03:46;;;;;;;4.60;2.10;;;;;27.90;101244.00;;;;10025801;29;20205;-77
2022/05/16 13:08:55;;;;;;;8.82;2.35;;;;;30.00;101244.00;;;;10004520;29;20276;-77
2022/05/16 13:14:16;;;;;;;11.18;2.60;;;;;30.20;101244.00;;;;10023089;29;20213;-77
2022/05/16 13:19:19;;;;;;;7.72;2.00;;;;;29.80;101240.00;;;;9997193;29;20229;-77
2022/05/16 13:24:23;;;;;;;7.93;2.40;;;;;29.10;101253.00;;;;9965444;29;20225;-78
2022/05/16 13:29:34;;;;;;;9.05;2.42;;;;;28.20;101260.00;;;;10009847;29;20208;-78
2022/05/16 13:34:51;;;;;;;4.35;2.10;;;;;27.90;101265.00;;;;10025470;29;20535;-77
2022/05/16 13:40:02;;;;;;;7.95;2.60;;;;;27.60;101256.00;;;;9980257;29;20713;-78
2022/05/16 13:45:08;;;;;;;8.15;2.45;;;;;28.60;101254.00;;;;10025885;29;20193;-77
2022/05/16 13:50:28;;;;;;;5.00;2.25;;;;;28.80;101253.00;;;;9986889;29;20201;-77
2022/05/16 13:55:30;;;;;;;5.22;1.92;;;;;29.50;101236.00;;;;10045241;29;20241;-79
2022/05/16 14:00:38;;;;;;;5.07;1.92;;;;;30.00;101251.00;;;;9986206;29;20658;-78
2022/05/16 14:05:42;;;;;;;5.03;1.77;;;;;30.90;101263.00;;;;10011323;29;20235;-77
2022/05/16 14:10:44;;;;;;;4.90;2.00;;;;;32.00;101257.00;;;;9993237;29;20197;-77
2022/05/16 14:15:58;;;;;;;5.25;1.65;;;;;33.80;101268.00;;;;10008902;29;20243;-78
2022/05/16 14:21:23;;;;;;;3.80;1.45;;;;;33.40;101275.00;;;;9993041;29;20906;-77
2022/05/16 14:26:38;;;;;;;3.05;1.42;;;;;32.40;101278.00;;;;10030565;29;20193;-78
2022/05/16 14:31:46;;;;;;;5.05;1.73;;;;;31.10;101275.00;;;;10021772;29;20673;-77
2022/05/16 14:36:51;;;;;;;4.55;1.98;;;;;29.60;101288.00;;;;10003750;29;20248;-78
2022/05/16 14:42:09;;;;;;;5.25;1.40;;;;;30.40;101289.00;;;;9995251;29;20214;-78
2022/05/16 14:47:29;;;;;;;6.38;1.92;;;;;31.90;101289.00;;;;9985296;29;20198;-77
2022/05/16 14:52:32;;;;;;;3.22;1.42;;;;;31.80;101285.00;;;;10010264;29;20246;-77
2022/05/16 14:57:36;;;;;;;7.90;1.88;;;;;30.40;101290.00;;;;9999075;29;20207;-78
2022/05/16 15:07:59;;;;;;;5.95;1.80;;;;;36.00;101281.00;;;;10005145;29;20209;-78
2022/05/16 15:13:02;;;;;;;3.72;1.52;;;;;37.20;101283.00;;;;9989565;29;20217;-77
2022/05/16 15:18:04;;;;;;;3.85;1.83;;;;;37.60;101281.00;;;;9960109;29;20230;-78
2022/05/16 15:23:06;;;;;;;2.80;1.50;;;;;34.50;101298.00;;;;9988118;29;20234;-78
2022/05/16 15:28:09;;;;;;;6.15;1.77;;;;;35.30;101272.00;;;;9991352;29;20239;-79
2022/05/16 15:33:14;;;;;;;5.20;1.60;;;;;33.00;101259.00;;;;9987203;29;20244;-78
2022/05/16 15:38:18;;;;;;;6.38;1.50;;;;;38.40;101267.00;;;;9965080;29;20321;-77
2022/05/16 15:43:21;;;;;;;2.55;1.40;;;;;35.80;101278.00;;;;9989410;29;20237;-77
2022/05/16 15:48:23;;;;;;;6.97;1.55;;;;;31.80;101289.00;;;;9997051;29;20690;-77
2022/05/16 15:53:25;;;;;;;2.38;1.40;;;;;30.50;101272.00;;;;10014296;29;20214;-78
2022/05/16 15:58:27;;;;;;;4.05;1.70;;;;;28.80;101290.00;;;;10003929;29;20203;-77
2022/05/16 16:09:00;;;;;;;5.35;1.80;;;;;26.50;101285.00;;;;10032672;29;20201;-77
2022/05/16 16:14:02;;;;;;;2.78;1.20;;;;;26.40;101290.00;;;;9977258;29;20274;-77
2022/05/16 16:19:06;;;;;;;3.92;1.23;;;;;26.80;101280.00;;;;9993690;29;20233;-77
2022/05/16 16:24:09;;;;;;;5.05;1.45;;;;;26.70;101289.00;;;;10001167;29;20205;-77
2022/05/16 16:29:12;;;;;;;5.78;1.50;;;;;25.80;101301.00;;;;9969900;29;20194;-77
2022/05/16 16:34:14;;;;;;;5.63;1.45;;;;;25.80;101291.00;;;;10009635;29;20316;-77
2022/05/16 16:39:18;;;;;;;4.88;1.17;;;;;25.40;101294.00;;;;9984947;29;20289;-77
2022/05/16 16:44:20;;;;;;;5.72;1.38;;;;;25.40;101292.00;;;;9983310;29;20215;-77
2022/05/16 16:49:24;;;;;;;7.18;1.60;;;;;25.40;101288.00;;;;9972389;29;20685;-77
2022/05/16 16:59:50;;;;;;;3.83;1.30;;;;;24.60;101287.00;;;;9978250;29;20201;-77
2022/05/16 17:04:55;;;;;;;5.75;1.33;;;;;24.40;101294.00;;;;9997272;29;20205;-76
2022/05/16 17:09:59;;;;;;;4.60;1.33;;;;;24.60;101299.00;;;;9965697;29;20245;-77
2022/05/16 17:15:02;;;;;;;3.30;1.27;;;;;24.60;101298.00;;;;10004319;29;20882;-77
2022/05/16 17:20:06;;;;;;;5.45;1.17;;;;;24.50;101307.00;;;;10005100;29;20225;-77
2022/05/16 17:25:09;;;;;;;3.33;1.02;;;;;24.50;101311.00;;;;9991437;29;20293;-77
2022/05/16 17:30:12;;;;;;;5.45;1.30;;;;;24.30;101315.00;;;;9990807;29;20218;-77
2022/05/16 17:35:16;;;;;;;4.93;1.60;;;;;24.10;101315.00;;;;9992498;29;20217;-77
2022/05/16 17:40:18;;;;;;;3.67;0.88;;;;;23.80;101317.00;;;;10005314;29;20193;-77
2022/05/16 17:45:20;;;;;;;3.20;1.13;;;;;23.60;101329.00;;;;9967791;29;20198;-76
2022/05/16 17:50:23;;;;;;;3.38;1.13;;;;;23.40;101327.00;;;;9989961;29;20237;-77
2022/05/16 17:55:27;;;;;;;4.15;1.38;;;;;23.20;101334.00;;;;9989775;29;20209;-78
2022/05/16 18:00:29;;;;;;;6.60;1.20;;;;;23.00;101340.00;;;;9977656;29;20284;-77
2022/05/16 18:05:32;;;;;;;2.70;0.77;;;;;22.90;101343.00;;;;9973113;29;20209;-76
2022/05/16 18:15:55;;;;;;;3.72;1.10;;;;;22.60;101365.00;;;;9999414;29;20214;-76
2022/05/16 18:20:58;;;;;;;6.43;1.20;;;;;22.50;101359.00;;;;10017336;29;20324;-77
2022/05/16 18:26:00;;;;;;;2.47;0.90;;;;;22.40;101369.00;;;;9977054;29;20239;-77
2022/05/16 18:31:03;;;;;;;4.85;1.17;;;;;22.30;101380.00;;;;9993772;29;20193;-77
2022/05/16 18:36:05;;;;;;;2.80;1.10;;;;;22.10;101383.00;;;;9988750;29;20241;-77
2022/05/16 18:41:13;;;;;;;4.38;1.35;;;;;22.00;101392.00;;;;10006727;29;20250;-77
2022/05/16 18:51:40;;;;;;;6.15;1.30;;;;;21.70;101405.00;;;;10032853;29;20258;-76
2022/05/16 18:56:42;;;;;;;3.40;1.27;;;;;21.50;101418.00;;;;9998357;29;20320;-76
2022/05/16 19:01:44;;;;;;;6.63;1.30;;;;;21.40;101427.00;;;;9980013;29;20242;-76
2022/05/16 19:06:47;;;;;;;4.20;1.23;;;;;21.20;101420.00;;;;9985464;29;20232;-77
2022/05/16 19:11:48;;;;;;;5.80;1.20;;;;;20.90;101427.00;;;;9986550;29;20280;-76
2022/05/16 19:16:52;;;;;;;2.83;1.40;;;;;20.70;101433.00;;;;9996488;29;20278;-76
2022/05/16 19:21:54;;;;;;;6.68;1.25;;;;;20.60;101434.00;;;;10005379;29;20224;-76
2022/05/16 19:26:56;;;;;;;7.55;1.45;;;;;20.40;101434.00;;;;10012884;29;20278;-77
2022/05/16 19:32:00;;;;;;;4.25;1.00;;;;;20.20;101432.00;;;;9991538;29;20313;-76
2022/05/16 19:37:02;;;;;;;7.97;1.27;;;;;20.00;101442.00;;;;9997809;29;20240;-76
2022/05/16 19:42:07;;;;;;;6.72;1.50;;;;;19.70;101451.00;;;;10000805;29;20614;-76
2022/05/16 19:47:10;;;;;;;5.63;1.30;;;;;19.50;101464.00;;;;9990714;29;20202;-76
2022/05/16 19:52:14;;;;;;;8.43;1.63;;;;;19.40;101466.00;;;;9998519;29;20225;-76
2022/05/16 19:57:17;;;;;;;7.97;1.80;;;;;19.30;101469.00;;;;9988530;29;20202;-76
2022/05/16 20:02:19;;;;;;;5.35;1.35;;;;;19.20;101477.00;;;;10002551;29;20262;-77
2022/05/16 20:07:21;;;;;;;6.25;1.90;;;;;19.10;101486.00;;;;10015100;29;20218;-76
2022/05/16 20:12:28;;;;;;;3.95;1.85;;;;;19.00;101493.00;;;;10016745;29;20214;-76
2022/05/16 20:17:30;;;;;;;4.63;1.95;;;;;18.90;101498.00;;;;10021280;29;20288;-77
2022/05/16 20:27:53;;;;;;;5.90;2.08;;;;;18.60;101494.00;;;;9987301;29;20206;-76
2022/05/16 20:32:55;;;;;;;8.35;1.92;;;;;18.50;101496.00;;;;10012434;29;20205;-76
2022/05/16 20:37:57;;;;;;;8.45;1.80;;;;;18.30;101499.00;;;;9986737;29;20201;-77
2022/05/16 20:42:59;;;;;;;9.43;2.17;;;;;18.10;101498.00;;;;9985017;29;20726;-77
2022/05/16 20:48:02;;;;;;;5.18;1.40;;;;;18.00;101500.00;;;;10010816;29;20221;-76
2022/05/16 20:53:06;;;;;;;4.82;2.05;;;;;17.80;101500.00;;;;9963982;29;20317;-76
2022/05/16 20:58:09;;;;;;;5.03;1.58;;;;;17.70;101500.00;;;;9987423;29;20225;-76
2022/05/16 21:03:11;;;;;;;7.88;1.60;;;;;17.60;101508.00;;;;9990876;29;20627;-77
2022/05/16 21:08:13;;;;;;;5.30;1.63;;;;;17.50;101522.00;;;;9999171;29;20205;-77
2022/05/16 21:13:15;;;;;;;11.90;2.63;;;;;17.30;101517.00;;;;9991062;29;20222;-77
2022/05/16 21:18:17;;;;;;;4.07;1.70;;;;;17.20;101508.00;;;;9986385;29;20259;-77
2022/05/16 21:23:18;;;;;;;5.65;2.08;;;;;17.10;101503.00;;;;10016751;29;20221;-76
2022/05/16 21:28:21;;;;;;;12.40;2.63;;;;;17.00;101511.00;;;;9968173;29;20234;-76
2022/05/16 21:33:23;;;;;;;4.80;1.57;;;;;17.00;101506.00;;;;9988428;29;20222;-77
2022/05/16 21:38:25;;;;;;;6.33;1.97;;;;;16.80;101507.00;;;;9969589;29;20413;-77
2022/05/16 21:48:47;;;;;;;6.90;1.83;;;;;16.70;101501.00;;;;10029814;29;20565;-77
2022/05/16 21:53:49;;;;;;;8.00;2.13;;;;;16.70;101500.00;;;;10010174;29;20237;-77
2022/05/16 21:58:51;;;;;;;7.00;1.87;;;;;16.60;101500.00;;;;9978866;29;20205;-77
2022/05/16 22:03:59;;;;;;;5.00;2.23;;;;;16.50;101502.00;;;;10009361;29;20201;-77
2022/05/16 22:09:02;;;;;;;5.90;1.50;;;;;16.30;101504.00;;;;10001925;29;20198;-76
2022/05/16 22:14:06;;;;;;;4.97;1.60;;;;;16.20;101492.00;;;;9992414;29;20252;-77
2022/05/16 22:19:07;;;;;;;6.77;1.80;;;;;16.10;101501.00;;;;9978138;29;20237;-77
2022/05/16 22:24:15;;;;;;;6.43;1.90;;;;;16.00;101504.00;;;;10008493;29;20206;-77
2022/05/16 22:29:17;;;;;;;3.97;1.67;;;;;15.90;101509.00;;;;10008176;29;20267;-77
2022/05/16 22:34:19;;;;;;;6.00;2.03;;;;;15.90;101502.00;;;;9978291;29;20266;-78
2022/05/16 22:39:20;;;;;;;5.13;1.80;;;;;15.90;101507.00;;;;10007980;29;20281;-77
2022/05/16 22:44:22;;;;;;;3.33;1.60;;;;;15.80;101506.00;;;;9970757;29;20206;-77
2022/05/16 22:49:24;;;;;;;5.17;2.17;;;;;15.80;101499.00;;;;9997838;29;20228;-77
2022/05/16 22:54:26;;;;;;;6.63;2.13;;;;;15.70;101506.00;;;;10007067;29;20826;-77
2022/05/16 22:59:28;;;;;;;3.67;2.00;;;;;15.60;101517.00;;;;9963079;29;20258;-78
2022/05/16 23:04:30;;;;;;;6.43;2.57;;;;;15.50;101526.00;;;;9992285;29;20198;-78
2022/05/16 23:09:33;;;;;;;6.63;1.90;;;;;15.40;101514.00;;;;9976784;29;20201;-78
2022/05/16 23:14:35;;;;;;;3.37;1.67;;;;;15.40;101508.00;;;;9992351;29;20201;-78
2022/05/16 23:19:37;;;;;;;3.63;2.03;;;;;15.40;101516.00;;;;9983815;29;20241;-78
2022/05/16 23:24:39;;;;;;;6.70;2.10;;;;;15.40;101515.00;;;;9978061;29;20220;-78
2022/05/16 23:29:41;;;;;;;6.60;2.10;;;;;15.40;101518.00;;;;9995639;29;20543;-78
2022/05/16 23:34:43;;;;;;;4.27;2.10;;;;;15.30;101521.00;;;;9994150;29;20286;-77
2022/05/16 23:39:45;;;;;;;5.10;1.90;;;;;15.20;101513.00;;;;10045708;29;20196;-77
2022/05/16 23:44:47;;;;;;;5.83;2.10;;;;;15.00;101517.00;;;;9984447;29;20202;-78
2022/05/16 23:49:50;;;;;;;5.70;1.93;;;;;14.90;101517.00;;;;9975296;29;20677;-77
2022/05/16 23:54:52;;;;;;;8.00;2.33;;;;;14.90;101526.00;;;;9973526;29;20210;-77
2022/05/16 23:59:54;;;;;;;4.60;2.07;;;;;14.80;101533.00;;;;9998283;29;20263;-77
